createdAt,value
2018-08-20T00:01:53.036Z,20.90
2018-08-20T00:04:21.827Z,20.80
2018-08-20T00:06:55.952Z,20.80
2018-08-20T00:09:59.642Z,20.80
2018-08-20T00:12:28.459Z,20.80
2018-08-20T00:14:57.376Z,20.80
2018-08-20T00:17:26.122Z,20.70
2018-08-20T00:19:54.884Z,20.70
2018-08-20T00:22:23.601Z,20.70
2018-08-20T00:25:03.438Z,20.60
2018-08-20T00:27:32.272Z,20.60
2018-08-20T00:30:01.081Z,20.60
2018-08-20T00:32:49.412Z,20.50
2018-08-20T00:35:19.773Z,20.50
2018-08-20T00:37:50.740Z,20.50
2018-08-20T00:40:20.222Z,20.50
2018-08-20T00:42:49.178Z,20.40
2018-08-20T00:45:17.907Z,20.40
2018-08-20T00:47:46.648Z,20.30
2018-08-20T00:50:15.467Z,20.30
2018-08-20T00:52:49.415Z,20.30
2018-08-20T00:55:18.211Z,20.30
2018-08-20T00:57:46.970Z,20.30
2018-08-20T01:00:15.846Z,20.30
2018-08-20T01:02:44.749Z,20.30
2018-08-20T01:05:13.462Z,20.40
2018-08-20T01:07:42.835Z,20.40
2018-08-20T01:10:11.576Z,20.40
2018-08-20T01:12:40.400Z,20.40
2018-08-20T01:15:09.187Z,20.40
2018-08-20T01:17:37.997Z,20.40
2018-08-20T01:20:06.823Z,20.50
2018-08-20T01:22:35.783Z,20.50
2018-08-20T01:25:04.554Z,20.50
2018-08-20T01:27:33.308Z,20.40
2018-08-20T01:30:02.122Z,20.40
2018-08-20T01:32:30.890Z,20.40
2018-08-20T01:35:13.475Z,20.40
2018-08-20T01:37:42.222Z,20.30
2018-08-20T01:40:10.998Z,20.40
2018-08-20T01:42:40.077Z,20.30
2018-08-20T01:45:08.874Z,20.40
2018-08-20T01:47:37.618Z,20.40
2018-08-20T01:50:06.355Z,20.40
2018-08-20T01:52:40.229Z,20.40
2018-08-20T01:55:09.024Z,20.40
2018-08-20T01:57:37.760Z,20.40
2018-08-20T02:00:07.007Z,20.40
2018-08-20T02:02:35.770Z,20.30
2018-08-20T02:05:05.160Z,20.30
2018-08-20T02:07:33.846Z,20.30
2018-08-20T02:10:02.633Z,20.30
2018-08-20T02:12:34.053Z,20.30
2018-08-20T02:15:03.628Z,20.20
2018-08-20T02:17:32.375Z,20.10
2018-08-20T02:20:01.054Z,20.00
2018-08-20T02:22:29.960Z,19.90
2018-08-20T02:24:58.761Z,19.90
2018-08-20T02:27:27.643Z,19.90
2018-08-20T02:29:56.593Z,19.90
2018-08-20T02:32:25.322Z,19.90
2018-08-20T02:34:54.019Z,19.90
2018-08-20T02:37:23.736Z,19.90
2018-08-20T02:39:52.515Z,19.90
2018-08-20T02:42:21.239Z,19.80
2018-08-20T02:44:50.003Z,19.80
2018-08-20T02:47:18.724Z,19.80
2018-08-20T02:49:47.415Z,19.70
2018-08-20T02:52:16.368Z,19.60
2018-08-20T02:54:45.110Z,19.50
2018-08-20T02:57:13.825Z,19.60
2018-08-20T02:59:42.549Z,19.50
2018-08-20T03:02:11.427Z,19.50
2018-08-20T03:04:40.078Z,19.40
2018-08-20T03:07:08.830Z,19.40
2018-08-20T03:09:37.514Z,19.40
2018-08-20T03:12:06.500Z,19.40
2018-08-20T03:14:35.395Z,19.40
2018-08-20T03:17:04.373Z,19.30
2018-08-20T03:19:33.084Z,19.30
2018-08-20T03:22:01.852Z,19.30
2018-08-20T03:24:30.559Z,19.30
2018-08-20T03:26:59.362Z,19.30
2018-08-20T03:29:28.077Z,19.20
2018-08-20T03:31:56.851Z,19.10
2018-08-20T03:34:25.636Z,19.20
2018-08-20T03:36:54.414Z,19.10
2018-08-20T03:39:23.171Z,19.10
2018-08-20T03:41:51.989Z,19.10
2018-08-20T03:44:20.771Z,19.10
2018-08-20T03:46:49.507Z,19.10
2018-08-20T03:49:18.378Z,19.10
2018-08-20T03:51:47.342Z,19.10
2018-08-20T03:54:16.131Z,19.10
2018-08-20T03:56:44.928Z,19.10
2018-08-20T03:59:28.707Z,19.00
2018-08-20T04:01:57.364Z,19.10
2018-08-20T04:04:26.086Z,19.20
2018-08-20T04:06:54.811Z,19.20
2018-08-20T04:09:23.562Z,19.10
2018-08-20T04:11:52.439Z,19.10
2018-08-20T04:14:21.162Z,19.10
2018-08-20T04:16:49.863Z,19.10
2018-08-20T04:19:18.652Z,19.10
2018-08-20T04:21:47.635Z,19.00
2018-08-20T04:24:16.540Z,19.00
2018-08-20T04:26:45.267Z,19.10
2018-08-20T04:29:13.952Z,19.20
2018-08-20T04:31:42.675Z,19.20
2018-08-20T04:34:11.318Z,19.20
2018-08-20T04:36:40.314Z,19.20
2018-08-20T04:39:09.689Z,19.20
2018-08-20T04:41:38.603Z,19.20
2018-08-20T04:44:07.463Z,19.20
2018-08-20T04:46:36.182Z,19.20
2018-08-20T04:49:04.967Z,19.10
2018-08-20T04:51:33.769Z,19.10
2018-08-20T04:54:02.378Z,19.10
2018-08-20T04:56:31.115Z,19.20
2018-08-20T04:58:59.872Z,19.20
2018-08-20T05:01:28.680Z,19.30
2018-08-20T05:03:57.542Z,19.40
2018-08-20T05:06:26.239Z,19.40
2018-08-20T05:08:54.968Z,19.40
2018-08-20T05:11:23.727Z,19.40
2018-08-20T05:13:52.472Z,19.40
2018-08-20T05:16:21.322Z,19.40
2018-08-20T05:18:50.539Z,19.40
2018-08-20T05:21:19.288Z,19.30
2018-08-20T05:23:48.210Z,19.40
2018-08-20T05:26:16.994Z,19.40
2018-08-20T05:28:45.667Z,19.40
2018-08-20T05:31:14.355Z,19.40
2018-08-20T05:33:43.055Z,19.40
2018-08-20T05:36:11.719Z,19.40
2018-08-20T05:38:40.483Z,19.40
2018-08-20T05:41:09.171Z,19.30
2018-08-20T05:43:37.939Z,19.20
2018-08-20T05:46:07.114Z,19.30
2018-08-20T05:48:35.770Z,19.20
2018-08-20T05:51:04.463Z,19.20
2018-08-20T05:53:33.167Z,19.20
2018-08-20T05:56:01.843Z,19.20
2018-08-20T05:58:30.723Z,19.20
2018-08-20T06:00:59.618Z,19.20
2018-08-20T06:03:28.435Z,19.20
2018-08-20T06:05:57.236Z,19.10
2018-08-20T06:08:26.279Z,19.20
2018-08-20T06:10:55.076Z,19.30
2018-08-20T06:13:23.902Z,19.30
2018-08-20T06:15:53.076Z,19.20
2018-08-20T06:18:21.829Z,19.20
2018-08-20T06:20:50.731Z,19.20
2018-08-20T06:23:19.474Z,19.10
2018-08-20T06:25:48.194Z,19.10
2018-08-20T06:28:16.883Z,19.00
2018-08-20T06:30:45.819Z,19.00
2018-08-20T06:33:14.611Z,18.90
2018-08-20T06:35:43.277Z,18.90
2018-08-20T06:38:11.925Z,19.00
2018-08-20T06:40:40.591Z,19.00
2018-08-20T06:43:09.299Z,19.10
2018-08-20T06:45:38.063Z,19.20
2018-08-20T06:48:07.030Z,19.20
2018-08-20T06:50:35.740Z,19.20
2018-08-20T06:53:04.419Z,19.20
2018-08-20T06:55:33.119Z,19.20
2018-08-20T06:58:02.859Z,19.10
2018-08-20T07:00:31.907Z,19.20
2018-08-20T07:03:00.649Z,19.30
2018-08-20T07:05:29.354Z,19.30
2018-08-20T07:07:58.109Z,19.40
2018-08-20T07:10:30.956Z,19.50
2018-08-20T07:13:09.387Z,19.50
2018-08-20T07:15:38.015Z,19.50
2018-08-20T07:18:06.797Z,19.50
2018-08-20T07:20:35.529Z,19.40
2018-08-20T07:23:04.275Z,19.40
2018-08-20T07:25:32.986Z,19.40
2018-08-20T07:28:01.731Z,19.50
2018-08-20T07:30:30.395Z,19.60
2018-08-20T07:32:59.077Z,19.70
2018-08-20T07:35:27.823Z,19.70
2018-08-20T07:37:56.490Z,19.80
2018-08-20T07:40:25.270Z,19.80
2018-08-20T07:42:54.040Z,19.90
2018-08-20T07:45:22.804Z,19.90
2018-08-20T07:47:51.495Z,20.00
2018-08-20T07:50:20.261Z,20.00
2018-08-20T07:53:02.693Z,20.10
2018-08-20T07:55:31.424Z,20.30
2018-08-20T07:57:59.970Z,20.60
2018-08-20T08:00:28.630Z,21.10
2018-08-20T08:02:57.599Z,21.40
2018-08-20T08:05:26.327Z,21.70
2018-08-20T08:07:55.038Z,22.00
2018-08-20T08:10:23.939Z,22.20
2018-08-20T08:12:53.004Z,22.30
2018-08-20T08:15:21.755Z,22.50
2018-08-20T08:17:50.590Z,22.60
2018-08-20T08:20:19.382Z,23.00
2018-08-20T08:23:01.947Z,23.30
2018-08-20T08:25:30.684Z,23.60
2018-08-20T08:27:59.478Z,23.80
2018-08-20T08:30:28.267Z,24.00
2018-08-20T08:32:57.180Z,24.20
2018-08-20T08:35:25.989Z,24.30
2018-08-20T08:37:54.789Z,24.40
2018-08-20T08:40:23.654Z,24.50
2018-08-20T08:42:52.852Z,24.60
2018-08-20T08:45:21.719Z,24.70
2018-08-20T08:47:50.507Z,24.80
2018-08-20T08:50:19.371Z,24.80
2018-08-20T08:52:48.253Z,24.90
2018-08-20T08:55:16.965Z,25.00
2018-08-20T08:57:45.680Z,25.10
2018-08-20T09:00:17.453Z,25.20
2018-08-20T09:02:46.146Z,25.30
2018-08-20T09:05:15.062Z,25.30
2018-08-20T09:07:44.254Z,25.30
2018-08-20T09:10:13.318Z,25.40
2018-08-20T09:12:42.120Z,25.50
2018-08-20T09:15:15.014Z,25.60
2018-08-20T09:17:44.159Z,25.80
2018-08-20T09:20:14.618Z,25.80
2018-08-20T09:22:44.594Z,25.70
2018-08-20T09:25:14.208Z,25.60
2018-08-20T09:27:44.038Z,25.60
2018-08-20T09:30:17.363Z,25.60
2018-08-20T09:32:47.187Z,25.70
2018-08-20T09:35:16.014Z,25.80
2018-08-20T09:37:44.747Z,25.80
2018-08-20T09:40:13.728Z,25.90
2018-08-20T09:42:42.830Z,26.00
2018-08-20T09:45:11.756Z,26.20
2018-08-20T09:47:41.399Z,26.40
2018-08-20T09:50:11.766Z,26.40
2018-08-20T09:52:40.651Z,26.50
2018-08-20T09:55:09.958Z,26.50
2018-08-20T09:57:38.888Z,26.60
2018-08-20T10:00:10.574Z,26.60
2018-08-20T10:02:39.813Z,26.80
2018-08-20T10:05:08.688Z,26.90
2018-08-20T10:07:37.530Z,27.10
2018-08-20T10:10:06.744Z,27.00
2018-08-20T10:12:35.805Z,26.90
2018-08-20T10:15:04.742Z,26.80
2018-08-20T10:17:33.906Z,26.80
2018-08-20T10:20:02.779Z,26.80
2018-08-20T10:22:31.816Z,26.90
2018-08-20T10:25:00.542Z,27.00
2018-08-20T10:27:29.411Z,27.10
2018-08-20T10:29:59.517Z,27.20
2018-08-20T10:35:21.600Z,27.30
2018-08-20T10:37:50.470Z,27.40
2018-08-20T10:40:19.190Z,27.30
2018-08-20T10:42:47.964Z,27.20
2018-08-20T10:45:18.843Z,27.20
2018-08-20T10:50:24.727Z,27.10
2018-08-20T10:52:53.759Z,27.20
2018-08-20T10:55:22.595Z,27.20
2018-08-20T10:57:51.376Z,27.20
2018-08-20T11:00:20.166Z,27.30
2018-08-20T11:02:48.955Z,27.40
2018-08-20T11:05:19.223Z,27.50
2018-08-20T11:07:48.103Z,27.60
2018-08-20T11:10:16.992Z,27.80
2018-08-20T11:12:45.796Z,27.90
2018-08-20T11:15:14.605Z,28.00
2018-08-20T11:17:43.398Z,28.00
2018-08-20T11:20:15.075Z,28.10
2018-08-20T11:22:44.215Z,28.30
2018-08-20T11:25:13.642Z,28.40
2018-08-20T11:27:42.545Z,28.50
2018-08-20T11:30:12.851Z,28.60
2018-08-20T11:32:42.017Z,28.70
2018-08-20T11:35:11.443Z,28.60
2018-08-20T11:37:40.611Z,28.50
2018-08-20T11:40:09.800Z,28.40
2018-08-20T11:42:38.697Z,28.50
2018-08-20T11:45:09.925Z,28.70
2018-08-20T11:47:38.807Z,28.80
2018-08-20T11:50:08.015Z,28.90
2018-08-20T11:52:37.641Z,29.00
2018-08-20T11:55:06.383Z,29.00
2018-08-20T11:57:36.013Z,29.20
2018-08-20T12:00:06.843Z,29.40
2018-08-20T12:02:36.052Z,29.40
2018-08-20T12:05:05.265Z,29.50
2018-08-20T12:07:34.080Z,29.60
2018-08-20T12:10:02.872Z,29.60
2018-08-20T12:12:31.699Z,29.40
2018-08-20T12:15:00.776Z,29.20
2018-08-20T12:17:29.603Z,29.30
2018-08-20T12:19:58.431Z,29.30
2018-08-20T12:22:27.199Z,29.20
2018-08-20T12:24:55.999Z,29.10
2018-08-20T12:27:24.809Z,29.10
2018-08-20T12:29:53.615Z,29.10
2018-08-20T12:32:22.454Z,29.20
2018-08-20T12:34:51.553Z,29.20
2018-08-20T12:37:20.318Z,29.20
2018-08-20T12:39:49.566Z,29.20
2018-08-20T12:42:18.655Z,29.20
2018-08-20T12:44:47.549Z,29.20
2018-08-20T12:47:16.315Z,29.10
2018-08-20T12:49:45.067Z,29.20
2018-08-20T12:52:14.121Z,29.30
2018-08-20T12:54:42.995Z,29.40
2018-08-20T12:57:11.846Z,29.40
2018-08-20T12:59:40.648Z,29.40
2018-08-20T13:02:09.460Z,29.40
2018-08-20T13:04:38.238Z,29.50
2018-08-20T13:07:07.180Z,29.60
2018-08-20T13:09:36.180Z,29.80
2018-08-20T13:12:04.945Z,29.90
2018-08-20T13:14:33.724Z,29.80
2018-08-20T13:17:02.489Z,29.80
2018-08-20T13:19:31.267Z,29.80
2018-08-20T13:22:00.080Z,29.80
2018-08-20T13:24:28.809Z,29.80
2018-08-20T13:26:57.567Z,29.80
2018-08-20T13:29:26.339Z,29.90
2018-08-20T13:31:55.134Z,30.00
2018-08-20T13:34:23.955Z,29.90
2018-08-20T13:36:53.094Z,29.90
2018-08-20T13:39:21.823Z,30.00
2018-08-20T13:41:50.607Z,30.20
2018-08-20T13:44:19.357Z,30.30
2018-08-20T13:46:48.147Z,30.30
2018-08-20T13:49:16.917Z,30.40
2018-08-20T13:53:14.868Z,30.60
2018-08-20T13:55:43.607Z,30.60
2018-08-20T13:58:12.416Z,30.50
2018-08-20T14:00:41.192Z,30.40
2018-08-20T14:03:09.949Z,30.30
2018-08-20T14:05:38.794Z,30.40
2018-08-20T14:08:07.541Z,30.60
2018-08-20T14:10:36.241Z,30.60
2018-08-20T14:15:57.991Z,30.80
2018-08-20T14:18:26.823Z,30.80
2018-08-20T14:21:06.212Z,30.70
2018-08-20T14:23:35.461Z,30.60
2018-08-20T14:26:04.216Z,30.60
2018-08-20T14:28:33.096Z,30.60
2018-08-20T14:31:01.870Z,30.60
2018-08-20T14:33:30.613Z,30.60
2018-08-20T14:35:59.355Z,30.50
2018-08-20T14:38:28.064Z,30.40
2018-08-20T14:40:56.850Z,30.30
2018-08-20T14:43:26.223Z,30.30
2018-08-20T14:46:00.060Z,30.30
2018-08-20T14:48:29.096Z,30.30
2018-08-20T14:50:57.835Z,30.30
2018-08-20T14:53:26.734Z,30.20
2018-08-20T14:55:55.583Z,30.20
2018-08-20T14:58:24.400Z,30.20
2018-08-20T15:00:53.264Z,30.00
2018-08-20T15:03:22.038Z,29.80
2018-08-20T15:05:50.792Z,29.70
2018-08-20T15:08:19.552Z,29.80
2018-08-20T15:10:48.405Z,29.90
2018-08-20T15:13:17.208Z,30.10
2018-08-20T15:15:46.167Z,30.20
2018-08-20T15:18:14.734Z,30.10
2018-08-20T15:20:44.224Z,29.90
2018-08-20T15:23:13.147Z,29.70
2018-08-20T15:25:41.894Z,29.60
2018-08-20T15:28:10.701Z,29.60
2018-08-20T15:30:39.677Z,29.70
2018-08-20T15:33:08.585Z,29.70
2018-08-20T15:35:37.453Z,29.60
2018-08-20T15:38:06.207Z,29.40
2018-08-20T15:40:35.060Z,29.20
2018-08-20T15:43:03.970Z,29.00
2018-08-20T15:45:32.750Z,28.90
2018-08-20T15:48:01.524Z,28.80
2018-08-20T15:50:30.434Z,28.80
2018-08-20T15:52:59.217Z,28.80
2018-08-20T15:55:28.046Z,28.80
2018-08-20T15:57:57.049Z,28.60
2018-08-20T16:00:25.950Z,28.50
2018-08-20T16:02:54.735Z,28.50
2018-08-20T16:05:23.523Z,28.50
2018-08-20T16:07:52.276Z,28.50
2018-08-20T16:10:21.022Z,28.40
2018-08-20T16:12:49.807Z,28.40
2018-08-20T16:15:18.517Z,28.40
2018-08-20T16:17:47.242Z,28.30
2018-08-20T16:20:16.031Z,28.30
2018-08-20T16:22:44.839Z,28.30
2018-08-20T16:25:13.700Z,28.30
2018-08-20T16:27:42.579Z,28.30
2018-08-20T16:30:13.057Z,28.30
2018-08-20T16:32:41.956Z,28.30
2018-08-20T16:35:12.091Z,28.20
2018-08-20T16:37:41.595Z,28.10
2018-08-20T16:40:10.386Z,28.20
2018-08-20T16:42:39.156Z,28.20
2018-08-20T16:45:09.036Z,28.10
2018-08-20T16:47:38.033Z,28.20
2018-08-20T16:50:08.500Z,28.20
2018-08-20T16:52:37.317Z,28.20
2018-08-20T16:55:06.647Z,28.20
2018-08-20T16:57:35.402Z,28.10
2018-08-20T17:00:05.879Z,28.10
2018-08-20T17:02:35.164Z,28.00
2018-08-20T17:05:03.904Z,28.00
2018-08-20T17:07:32.668Z,28.00
2018-08-20T17:10:01.391Z,28.00
2018-08-20T17:12:30.143Z,27.90
2018-08-20T17:14:58.943Z,27.90
2018-08-20T17:17:27.656Z,27.80
2018-08-20T17:19:56.368Z,27.70
2018-08-20T17:22:25.091Z,27.50
2018-08-20T17:24:55.891Z,27.40
2018-08-20T17:27:24.666Z,27.30
2018-08-20T17:29:55.224Z,27.20
2018-08-20T17:32:24.185Z,27.00
2018-08-20T17:34:52.988Z,27.00
2018-08-20T17:37:21.768Z,27.00
2018-08-20T17:40:02.149Z,26.80
2018-08-20T17:42:31.925Z,26.70
2018-08-20T17:45:01.319Z,26.60
2018-08-20T17:47:30.691Z,26.50
2018-08-20T17:50:00.212Z,26.40
2018-08-20T17:52:35.126Z,26.30
2018-08-20T17:55:05.060Z,26.20
2018-08-20T17:57:34.122Z,26.10
2018-08-20T18:00:16.069Z,26.00
2018-08-20T18:02:44.778Z,25.90
2018-08-20T18:05:13.551Z,25.90
2018-08-20T18:07:42.334Z,25.70
2018-08-20T18:10:11.123Z,25.60
2018-08-20T18:12:40.017Z,25.50
2018-08-20T18:15:08.787Z,25.40
2018-08-20T18:17:37.473Z,25.30
2018-08-20T18:20:06.275Z,25.20
2018-08-20T18:22:35.889Z,25.10
2018-08-20T18:25:04.840Z,25.00
2018-08-20T18:27:37.972Z,25.00
2018-08-20T18:30:06.776Z,25.00
2018-08-20T18:32:35.505Z,25.10
2018-08-20T18:35:04.469Z,25.10
2018-08-20T18:37:37.344Z,25.00
2018-08-20T18:40:07.383Z,25.10
2018-08-20T18:42:41.473Z,25.10
2018-08-20T18:45:10.187Z,25.10
2018-08-20T18:47:38.988Z,25.00
2018-08-20T18:50:07.740Z,25.00
2018-08-20T18:52:36.509Z,24.90
2018-08-20T18:55:05.328Z,24.90
2018-08-20T18:57:35.496Z,24.80
2018-08-20T19:00:08.063Z,24.80
2018-08-20T19:02:39.687Z,24.80
2018-08-20T19:05:10.050Z,24.80
2018-08-20T19:07:38.969Z,24.80
2018-08-20T19:10:13.668Z,24.70
2018-08-20T19:12:42.567Z,24.70
2018-08-20T19:15:23.563Z,24.70
2018-08-20T19:17:52.576Z,24.60
2018-08-20T19:20:21.286Z,24.50
2018-08-20T19:22:50.004Z,24.50
2018-08-20T19:25:18.766Z,24.40
2018-08-20T19:27:47.499Z,24.40
2018-08-20T19:30:21.170Z,24.40
2018-08-20T19:32:50.138Z,24.30
2018-08-20T19:35:18.892Z,24.30
2018-08-20T19:37:47.964Z,24.20
2018-08-20T19:40:16.736Z,24.30
2018-08-20T19:42:45.503Z,24.20
2018-08-20T19:45:14.626Z,24.20
2018-08-20T19:47:43.395Z,24.20
2018-08-20T19:50:12.861Z,24.30
2018-08-20T19:52:42.310Z,24.30
2018-08-20T19:55:12.430Z,24.20
2018-08-20T19:57:41.259Z,24.10
2018-08-20T20:00:14.032Z,24.10
2018-08-20T20:02:43.853Z,24.10
2018-08-20T20:05:14.422Z,24.00
2018-08-20T20:08:07.214Z,24.00
2018-08-20T20:10:40.091Z,23.90
2018-08-20T20:13:09.064Z,23.70
2018-08-20T20:15:41.943Z,23.60
2018-08-20T20:18:10.716Z,23.60
2018-08-20T20:20:39.527Z,23.60
2018-08-20T20:23:08.279Z,23.60
2018-08-20T20:25:36.938Z,23.60
2018-08-20T20:28:05.968Z,23.60
2018-08-20T20:30:34.769Z,23.60
2018-08-20T20:33:03.542Z,23.50
2018-08-20T20:35:32.304Z,23.50
2018-08-20T20:38:01.074Z,23.50
2018-08-20T20:40:29.860Z,23.40
2018-08-20T20:42:58.872Z,23.40
2018-08-20T20:45:27.637Z,23.30
2018-08-20T20:47:56.450Z,23.30
2018-08-20T20:50:27.215Z,23.30
2018-08-20T20:55:49.128Z,23.30
2018-08-20T20:58:25.005Z,23.30
2018-08-20T21:00:53.734Z,23.20
2018-08-20T21:03:22.499Z,23.20
2018-08-20T21:05:51.263Z,23.20
2018-08-20T21:08:19.983Z,23.10
2018-08-20T21:10:50.039Z,23.10
2018-08-20T21:13:20.343Z,23.10
2018-08-20T21:15:58.235Z,23.00
2018-08-20T21:18:27.018Z,23.00
2018-08-20T21:20:55.727Z,22.90
2018-08-20T21:23:24.649Z,22.90
2018-08-20T21:25:53.327Z,22.90
2018-08-20T21:28:23.639Z,22.90
2018-08-20T21:30:52.468Z,22.90
2018-08-20T21:33:21.261Z,22.80
2018-08-20T21:35:50.007Z,22.70
2018-08-20T21:38:18.727Z,22.70
2018-08-20T21:40:47.474Z,22.60
2018-08-20T21:43:16.431Z,22.60
2018-08-20T21:45:45.279Z,22.60
2018-08-20T21:48:13.972Z,22.50
2018-08-20T21:50:42.706Z,22.40
2018-08-20T21:53:11.460Z,22.40
2018-08-20T21:55:40.167Z,22.40
2018-08-20T21:58:08.956Z,22.40
2018-08-20T22:00:37.918Z,22.30
2018-08-20T22:03:09.390Z,22.30
2018-08-20T22:05:38.086Z,22.30
2018-08-20T22:08:06.744Z,22.30
2018-08-20T22:10:35.463Z,22.30
2018-08-20T22:13:04.124Z,22.30
2018-08-20T22:15:32.898Z,22.20
2018-08-20T22:18:01.627Z,22.10
2018-08-20T22:20:30.403Z,22.00
2018-08-20T22:23:25.192Z,22.00
2018-08-20T22:25:41.396Z,21.90
2018-08-20T22:28:10.289Z,21.90
2018-08-20T22:30:42.195Z,21.90
2018-08-20T22:33:10.987Z,21.90
2018-08-20T22:35:39.704Z,21.90
2018-08-20T22:38:08.488Z,21.90
2018-08-20T22:40:37.219Z,21.70
2018-08-20T22:43:06.112Z,21.70
2018-08-20T22:45:34.856Z,21.60
2018-08-20T22:48:03.550Z,21.60
2018-08-20T22:50:32.237Z,21.60
2018-08-20T22:53:00.950Z,21.60
2018-08-20T22:55:29.683Z,21.60
2018-08-20T22:58:09.003Z,21.60
2018-08-20T23:00:37.811Z,21.60
2018-08-20T23:03:06.555Z,21.50
2018-08-20T23:05:35.263Z,21.50
2018-08-20T23:08:09.363Z,21.50
2018-08-20T23:10:41.923Z,21.50
2018-08-20T23:13:10.898Z,21.50
2018-08-20T23:15:39.647Z,21.40
2018-08-20T23:18:08.435Z,21.30
2018-08-20T23:20:37.214Z,21.30
2018-08-20T23:23:06.312Z,21.30
2018-08-20T23:25:34.963Z,21.30
2018-08-20T23:28:03.679Z,21.10
2018-08-20T23:30:32.426Z,21.00
2018-08-20T23:33:01.074Z,21.00
2018-08-20T23:35:29.717Z,21.00
2018-08-20T23:37:58.450Z,21.00
2018-08-20T23:40:27.131Z,20.90
2018-08-20T23:42:55.818Z,20.80
2018-08-20T23:45:24.554Z,20.90
2018-08-20T23:47:53.267Z,20.90
2018-08-20T23:50:22.034Z,20.90
2018-08-20T23:52:56.007Z,20.90
2018-08-20T23:55:24.815Z,20.90
2018-08-20T23:57:53.552Z,20.70
